sensor_id;sensor_type;location;lat;lon;timestamp;P1;durP1;ratioP1;P2;durP2;ratioP2
7887;SDS011;3989;48.810;9.208;2022-08-23T00:02:04;4.07;;;2.23;;
7887;SDS011;3989;48.810;9.208;2022-08-23T00:04:33;2.57;;;2.37;;
7887;SDS011;3989;48.810;9.208;2022-08-23T00:07:02;2.57;;;2.30;;
7887;SDS011;3989;48.810;9.208;2022-08-23T00:09:31;4.00;;;2.77;;
7887;SDS011;3989;48.810;9.208;2022-08-23T00:12:03;2.47;;;2.20;;
7887;SDS011;3989;48.810;9.208;2022-08-23T00:14:35;7.03;;;2.93;;
7887;SDS011;3989;48.810;9.208;2022-08-23T00:17:03;2.67;;;2.53;;
7887;SDS011;3989;48.810;9.208;2022-08-23T00:19:30;2.60;;;2.40;;
7887;SDS011;3989;48.810;9.208;2022-08-23T00:21:57;2.87;;;2.63;;
7887;SDS011;3989;48.810;9.208;2022-08-23T00:24:24;5.63;;;3.07;;
7887;SDS011;3989;48.810;9.208;2022-08-23T00:26:52;3.43;;;3.10;;
7887;SDS011;3989;48.810;9.208;2022-08-23T00:29:22;3.37;;;3.10;;
7887;SDS011;3989;48.810;9.208;2022-08-23T00:31:54;4.37;;;3.30;;
7887;SDS011;3989;48.810;9.208;2022-08-23T00:34:26;3.23;;;3.03;;
7887;SDS011;3989;48.810;9.208;2022-08-23T00:36:53;3.33;;;3.03;;
7887;SDS011;3989;48.810;9.208;2022-08-23T00:39:20;3.30;;;3.03;;
7887;SDS011;3989;48.810;9.208;2022-08-23T00:41:47;5.67;;;3.10;;
7887;SDS011;3989;48.810;9.208;2022-08-23T00:44:19;3.93;;;3.40;;
7887;SDS011;3989;48.810;9.208;2022-08-23T00:47:22;2.93;;;2.73;;
7887;SDS011;3989;48.810;9.208;2022-08-23T00:50:09;3.23;;;2.80;;
7887;SDS011;3989;48.810;9.208;2022-08-23T00:52:41;4.63;;;3.00;;
7887;SDS011;3989;48.810;9.208;2022-08-23T00:55:13;3.77;;;3.23;;
7887;SDS011;3989;48.810;9.208;2022-08-23T00:57:41;2.77;;;2.57;;
7887;SDS011;3989;48.810;9.208;2022-08-23T01:00:09;4.40;;;3.13;;
7887;SDS011;3989;48.810;9.208;2022-08-23T01:02:38;3.03;;;2.83;;
7887;SDS011;3989;48.810;9.208;2022-08-23T01:05:06;2.87;;;2.67;;
7887;SDS011;3989;48.810;9.208;2022-08-23T01:07:39;5.17;;;3.30;;
7887;SDS011;3989;48.810;9.208;2022-08-23T01:10:14;3.60;;;2.93;;
7887;SDS011;3989;48.810;9.208;2022-08-23T01:12:51;2.80;;;2.60;;
7887;SDS011;3989;48.810;9.208;2022-08-23T01:15:22;5.70;;;3.13;;
7887;SDS011;3989;48.810;9.208;2022-08-23T01:17:56;5.20;;;3.00;;
7887;SDS011;3989;48.810;9.208;2022-08-23T01:20:27;5.27;;;3.80;;
7887;SDS011;3989;48.810;9.208;2022-08-23T01:23:01;4.30;;;2.90;;
7887;SDS011;3989;48.810;9.208;2022-08-23T01:25:35;4.77;;;3.20;;
7887;SDS011;3989;48.810;9.208;2022-08-23T01:28:02;3.83;;;3.53;;
7887;SDS011;3989;48.810;9.208;2022-08-23T01:30:30;7.63;;;3.90;;
7887;SDS011;3989;48.810;9.208;2022-08-23T01:32:59;3.50;;;3.20;;
7887;SDS011;3989;48.810;9.208;2022-08-23T01:35:30;3.70;;;2.77;;
7887;SDS011;3989;48.810;9.208;2022-08-23T01:38:02;5.50;;;3.50;;
7887;SDS011;3989;48.810;9.208;2022-08-23T01:40:28;3.60;;;2.80;;
7887;SDS011;3989;48.810;9.208;2022-08-23T01:42:57;5.23;;;3.10;;
7887;SDS011;3989;48.810;9.208;2022-08-23T01:45:24;3.37;;;3.17;;
7887;SDS011;3989;48.810;9.208;2022-08-23T01:47:51;3.37;;;3.10;;
7887;SDS011;3989;48.810;9.208;2022-08-23T01:50:18;3.50;;;3.30;;
7887;SDS011;3989;48.810;9.208;2022-08-23T01:52:45;3.40;;;3.00;;
7887;SDS011;3989;48.810;9.208;2022-08-23T01:55:11;4.03;;;3.40;;
7887;SDS011;3989;48.810;9.208;2022-08-23T01:57:38;3.93;;;3.63;;
7887;SDS011;3989;48.810;9.208;2022-08-23T02:00:08;3.93;;;3.07;;
7887;SDS011;3989;48.810;9.208;2022-08-23T02:02:35;3.73;;;3.43;;
7887;SDS011;3989;48.810;9.208;2022-08-23T02:05:03;3.80;;;3.50;;
7887;SDS011;3989;48.810;9.208;2022-08-23T02:07:30;3.83;;;3.53;;
7887;SDS011;3989;48.810;9.208;2022-08-23T02:09:57;4.10;;;3.40;;
7887;SDS011;3989;48.810;9.208;2022-08-23T02:12:24;5.67;;;3.43;;
7887;SDS011;3989;48.810;9.208;2022-08-23T02:14:51;4.13;;;3.73;;
7887;SDS011;3989;48.810;9.208;2022-08-23T02:17:19;3.73;;;3.43;;
7887;SDS011;3989;48.810;9.208;2022-08-23T02:19:46;3.83;;;3.27;;
7887;SDS011;3989;48.810;9.208;2022-08-23T02:22:13;3.90;;;3.57;;
7887;SDS011;3989;48.810;9.208;2022-08-23T02:24:40;4.13;;;3.70;;
7887;SDS011;3989;48.810;9.208;2022-08-23T02:27:08;4.80;;;3.60;;
7887;SDS011;3989;48.810;9.208;2022-08-23T02:29:36;3.87;;;3.57;;
7887;SDS011;3989;48.810;9.208;2022-08-23T02:32:03;4.37;;;3.73;;
7887;SDS011;3989;48.810;9.208;2022-08-23T02:34:31;4.23;;;3.83;;
7887;SDS011;3989;48.810;9.208;2022-08-23T02:36:58;3.93;;;3.33;;
7887;SDS011;3989;48.810;9.208;2022-08-23T02:39:26;4.00;;;3.57;;
7887;SDS011;3989;48.810;9.208;2022-08-23T02:41:54;4.67;;;3.83;;
7887;SDS011;3989;48.810;9.208;2022-08-23T02:44:21;3.53;;;3.23;;
7887;SDS011;3989;48.810;9.208;2022-08-23T02:46:48;5.30;;;4.10;;
7887;SDS011;3989;48.810;9.208;2022-08-23T02:49:15;5.03;;;3.60;;
7887;SDS011;3989;48.810;9.208;2022-08-23T02:51:45;4.67;;;4.27;;
7887;SDS011;3989;48.810;9.208;2022-08-23T02:54:11;4.83;;;3.97;;
7887;SDS011;3989;48.810;9.208;2022-08-23T02:56:38;4.73;;;4.23;;
7887;SDS011;3989;48.810;9.208;2022-08-23T02:59:05;3.97;;;3.53;;
7887;SDS011;3989;48.810;9.208;2022-08-23T03:01:33;4.20;;;3.90;;
7887;SDS011;3989;48.810;9.208;2022-08-23T03:04:02;4.13;;;3.80;;
7887;SDS011;3989;48.810;9.208;2022-08-23T03:06:32;3.60;;;3.40;;
7887;SDS011;3989;48.810;9.208;2022-08-23T03:09:03;4.50;;;4.10;;
7887;SDS011;3989;48.810;9.208;2022-08-23T03:11:32;4.77;;;4.37;;
7887;SDS011;3989;48.810;9.208;2022-08-23T03:13:59;4.30;;;3.90;;
7887;SDS011;3989;48.810;9.208;2022-08-23T03:16:26;4.17;;;3.87;;
7887;SDS011;3989;48.810;9.208;2022-08-23T03:18:54;4.27;;;3.87;;
7887;SDS011;3989;48.810;9.208;2022-08-23T03:21:21;3.90;;;3.67;;
7887;SDS011;3989;48.810;9.208;2022-08-23T03:23:47;7.17;;;3.83;;
7887;SDS011;3989;48.810;9.208;2022-08-23T03:26:16;4.93;;;3.90;;
7887;SDS011;3989;48.810;9.208;2022-08-23T03:28:43;4.67;;;3.90;;
7887;SDS011;3989;48.810;9.208;2022-08-23T03:31:11;4.63;;;3.90;;
7887;SDS011;3989;48.810;9.208;2022-08-23T03:33:40;4.03;;;3.73;;
7887;SDS011;3989;48.810;9.208;2022-08-23T03:36:07;6.27;;;3.97;;
7887;SDS011;3989;48.810;9.208;2022-08-23T03:38:36;3.70;;;3.40;;
7887;SDS011;3989;48.810;9.208;2022-08-23T03:41:04;4.27;;;3.93;;
7887;SDS011;3989;48.810;9.208;2022-08-23T03:43:32;6.90;;;4.47;;
7887;SDS011;3989;48.810;9.208;2022-08-23T03:45:59;4.00;;;3.70;;
7887;SDS011;3989;48.810;9.208;2022-08-23T03:48:25;3.97;;;3.67;;
7887;SDS011;3989;48.810;9.208;2022-08-23T03:50:52;4.63;;;4.23;;
7887;SDS011;3989;48.810;9.208;2022-08-23T03:53:19;5.07;;;4.50;;
7887;SDS011;3989;48.810;9.208;2022-08-23T03:55:48;3.97;;;3.67;;
7887;SDS011;3989;48.810;9.208;2022-08-23T03:58:16;4.77;;;4.20;;
7887;SDS011;3989;48.810;9.208;2022-08-23T04:00:46;6.73;;;3.90;;
7887;SDS011;3989;48.810;9.208;2022-08-23T04:03:13;5.07;;;4.57;;
7887;SDS011;3989;48.810;9.208;2022-08-23T04:05:40;4.37;;;3.90;;
7887;SDS011;3989;48.810;9.208;2022-08-23T04:08:07;4.57;;;4.23;;
7887;SDS011;3989;48.810;9.208;2022-08-23T04:10:35;4.53;;;4.20;;
7887;SDS011;3989;48.810;9.208;2022-08-23T04:13:03;6.67;;;4.60;;
7887;SDS011;3989;48.810;9.208;2022-08-23T04:15:30;4.97;;;4.47;;
7887;SDS011;3989;48.810;9.208;2022-08-23T04:17:58;4.37;;;3.97;;
7887;SDS011;3989;48.810;9.208;2022-08-23T04:20:25;5.10;;;4.27;;
7887;SDS011;3989;48.810;9.208;2022-08-23T04:22:53;5.67;;;4.13;;
7887;SDS011;3989;48.810;9.208;2022-08-23T04:25:20;5.43;;;4.43;;
7887;SDS011;3989;48.810;9.208;2022-08-23T04:27:47;5.23;;;4.80;;
7887;SDS011;3989;48.810;9.208;2022-08-23T04:30:13;4.97;;;4.20;;
7887;SDS011;3989;48.810;9.208;2022-08-23T04:32:44;4.63;;;4.10;;
7887;SDS011;3989;48.810;9.208;2022-08-23T04:35:12;6.17;;;4.60;;
7887;SDS011;3989;48.810;9.208;2022-08-23T04:37:39;7.57;;;4.37;;
7887;SDS011;3989;48.810;9.208;2022-08-23T04:40:06;5.83;;;4.30;;
7887;SDS011;3989;48.810;9.208;2022-08-23T04:42:52;6.97;;;5.03;;
7887;SDS011;3989;48.810;9.208;2022-08-23T04:45:18;6.03;;;4.77;;
7887;SDS011;3989;48.810;9.208;2022-08-23T04:47:45;4.27;;;3.97;;
7887;SDS011;3989;48.810;9.208;2022-08-23T04:50:13;6.33;;;4.40;;
7887;SDS011;3989;48.810;9.208;2022-08-23T04:52:40;5.70;;;4.30;;
7887;SDS011;3989;48.810;9.208;2022-08-23T04:55:07;7.83;;;4.43;;
7887;SDS011;3989;48.810;9.208;2022-08-23T04:57:34;5.63;;;4.70;;
7887;SDS011;3989;48.810;9.208;2022-08-23T05:00:01;5.43;;;4.60;;
7887;SDS011;3989;48.810;9.208;2022-08-23T05:02:28;4.60;;;4.20;;
7887;SDS011;3989;48.810;9.208;2022-08-23T05:04:55;4.80;;;4.43;;
7887;SDS011;3989;48.810;9.208;2022-08-23T05:07:23;8.17;;;5.07;;
7887;SDS011;3989;48.810;9.208;2022-08-23T05:09:56;4.57;;;3.97;;
7887;SDS011;3989;48.810;9.208;2022-08-23T05:12:25;5.00;;;4.50;;
7887;SDS011;3989;48.810;9.208;2022-08-23T05:14:53;5.27;;;4.70;;
7887;SDS011;3989;48.810;9.208;2022-08-23T05:17:20;6.20;;;4.17;;
7887;SDS011;3989;48.810;9.208;2022-08-23T05:19:47;4.63;;;4.33;;
7887;SDS011;3989;48.810;9.208;2022-08-23T05:22:13;4.87;;;4.43;;
7887;SDS011;3989;48.810;9.208;2022-08-23T05:24:41;4.53;;;4.00;;
7887;SDS011;3989;48.810;9.208;2022-08-23T05:27:10;7.27;;;5.03;;
7887;SDS011;3989;48.810;9.208;2022-08-23T05:29:36;8.17;;;4.90;;
7887;SDS011;3989;48.810;9.208;2022-08-23T05:32:04;5.83;;;5.03;;
7887;SDS011;3989;48.810;9.208;2022-08-23T05:34:31;4.90;;;4.40;;
7887;SDS011;3989;48.810;9.208;2022-08-23T05:36:58;4.90;;;4.50;;
7887;SDS011;3989;48.810;9.208;2022-08-23T05:39:24;5.67;;;4.90;;
7887;SDS011;3989;48.810;9.208;2022-08-23T05:41:53;5.90;;;4.40;;
7887;SDS011;3989;48.810;9.208;2022-08-23T05:44:19;5.37;;;4.87;;
7887;SDS011;3989;48.810;9.208;2022-08-23T05:46:46;7.13;;;4.43;;
7887;SDS011;3989;48.810;9.208;2022-08-23T05:49:13;7.57;;;4.40;;
7887;SDS011;3989;48.810;9.208;2022-08-23T05:51:39;7.53;;;4.97;;
7887;SDS011;3989;48.810;9.208;2022-08-23T05:54:06;6.83;;;4.13;;
7887;SDS011;3989;48.810;9.208;2022-08-23T05:56:34;5.77;;;4.27;;
7887;SDS011;3989;48.810;9.208;2022-08-23T05:59:06;4.07;;;3.60;;
7887;SDS011;3989;48.810;9.208;2022-08-23T06:01:35;5.43;;;4.37;;
7887;SDS011;3989;48.810;9.208;2022-08-23T06:04:03;3.90;;;3.53;;
7887;SDS011;3989;48.810;9.208;2022-08-23T06:06:31;7.83;;;4.00;;
7887;SDS011;3989;48.810;9.208;2022-08-23T06:08:58;5.67;;;3.70;;
7887;SDS011;3989;48.810;9.208;2022-08-23T06:11:27;4.17;;;3.53;;
7887;SDS011;3989;48.810;9.208;2022-08-23T06:13:55;4.70;;;4.23;;
7887;SDS011;3989;48.810;9.208;2022-08-23T06:16:25;3.90;;;3.50;;
7887;SDS011;3989;48.810;9.208;2022-08-23T06:18:54;5.00;;;3.57;;
7887;SDS011;3989;48.810;9.208;2022-08-23T06:21:24;4.37;;;3.97;;
7887;SDS011;3989;48.810;9.208;2022-08-23T06:23:51;4.43;;;3.83;;
7887;SDS011;3989;48.810;9.208;2022-08-23T06:26:19;4.27;;;3.60;;
7887;SDS011;3989;48.810;9.208;2022-08-23T06:28:48;3.90;;;3.50;;
7887;SDS011;3989;48.810;9.208;2022-08-23T06:31:16;3.70;;;3.30;;
7887;SDS011;3989;48.810;9.208;2022-08-23T06:34:08;3.90;;;3.60;;
7887;SDS011;3989;48.810;9.208;2022-08-23T06:36:36;6.33;;;3.80;;
7887;SDS011;3989;48.810;9.208;2022-08-23T06:39:03;5.20;;;4.27;;
7887;SDS011;3989;48.810;9.208;2022-08-23T06:41:31;5.30;;;3.70;;
7887;SDS011;3989;48.810;9.208;2022-08-23T06:43:58;4.10;;;3.70;;
7887;SDS011;3989;48.810;9.208;2022-08-23T06:46:26;3.85;;;3.50;;
7887;SDS011;3989;48.810;9.208;2022-08-23T06:48:54;6.00;;;3.67;;
7887;SDS011;3989;48.810;9.208;2022-08-23T06:51:32;10.13;;;4.00;;
7887;SDS011;3989;48.810;9.208;2022-08-23T06:54:03;3.65;;;3.30;;
7887;SDS011;3989;48.810;9.208;2022-08-23T06:56:31;4.05;;;3.75;;
7887;SDS011;3989;48.810;9.208;2022-08-23T06:58:59;5.13;;;4.35;;
7887;SDS011;3989;48.810;9.208;2022-08-23T07:01:31;5.55;;;4.18;;
7887;SDS011;3989;48.810;9.208;2022-08-23T07:04:10;7.47;;;3.78;;
7887;SDS011;3989;48.810;9.208;2022-08-23T07:06:40;3.72;;;3.42;;
7887;SDS011;3989;48.810;9.208;2022-08-23T07:09:07;4.95;;;3.40;;
7887;SDS011;3989;48.810;9.208;2022-08-23T07:11:34;5.18;;;3.67;;
7887;SDS011;3989;48.810;9.208;2022-08-23T07:14:03;3.67;;;3.20;;
7887;SDS011;3989;48.810;9.208;2022-08-23T07:16:35;5.40;;;3.60;;
7887;SDS011;3989;48.810;9.208;2022-08-23T07:19:06;6.15;;;3.30;;
7887;SDS011;3989;48.810;9.208;2022-08-23T07:21:33;4.57;;;3.50;;
7887;SDS011;3989;48.810;9.208;2022-08-23T07:24:05;4.90;;;3.47;;
7887;SDS011;3989;48.810;9.208;2022-08-23T07:26:35;3.55;;;3.08;;
7887;SDS011;3989;48.810;9.208;2022-08-23T07:29:06;3.20;;;2.97;;
7887;SDS011;3989;48.810;9.208;2022-08-23T07:31:37;4.03;;;3.40;;
7887;SDS011;3989;48.810;9.208;2022-08-23T07:34:05;4.15;;;3.03;;
7887;SDS011;3989;48.810;9.208;2022-08-23T07:36:34;6.07;;;3.30;;
7887;SDS011;3989;48.810;9.208;2022-08-23T07:39:03;5.88;;;3.20;;
7887;SDS011;3989;48.810;9.208;2022-08-23T07:41:32;3.15;;;2.90;;
7887;SDS011;3989;48.810;9.208;2022-08-23T07:44:01;3.88;;;2.80;;
7887;SDS011;3989;48.810;9.208;2022-08-23T07:46:28;3.13;;;2.80;;
7887;SDS011;3989;48.810;9.208;2022-08-23T07:48:56;2.88;;;2.60;;
7887;SDS011;3989;48.810;9.208;2022-08-23T07:51:23;3.63;;;2.58;;
7887;SDS011;3989;48.810;9.208;2022-08-23T07:53:52;3.42;;;2.65;;
7887;SDS011;3989;48.810;9.208;2022-08-23T07:56:19;3.97;;;2.88;;
7887;SDS011;3989;48.810;9.208;2022-08-23T07:58:48;2.80;;;2.70;;
7887;SDS011;3989;48.810;9.208;2022-08-23T08:01:16;4.30;;;2.80;;
7887;SDS011;3989;48.810;9.208;2022-08-23T08:03:45;3.38;;;2.70;;
7887;SDS011;3989;48.810;9.208;2022-08-23T08:06:14;5.20;;;2.72;;
7887;SDS011;3989;48.810;9.208;2022-08-23T08:08:43;3.47;;;2.58;;
7887;SDS011;3989;48.810;9.208;2022-08-23T08:11:12;2.60;;;2.50;;
7887;SDS011;3989;48.810;9.208;2022-08-23T08:13:42;3.30;;;2.60;;
7887;SDS011;3989;48.810;9.208;2022-08-23T08:16:18;2.60;;;2.50;;
7887;SDS011;3989;48.810;9.208;2022-08-23T08:18:47;5.18;;;2.45;;
7887;SDS011;3989;48.810;9.208;2022-08-23T08:21:15;2.33;;;2.20;;
7887;SDS011;3989;48.810;9.208;2022-08-23T08:23:42;2.53;;;2.42;;
7887;SDS011;3989;48.810;9.208;2022-08-23T08:26:09;3.53;;;3.20;;
7887;SDS011;3989;48.810;9.208;2022-08-23T08:28:36;2.25;;;2.15;;
7887;SDS011;3989;48.810;9.208;2022-08-23T08:31:04;4.72;;;3.20;;
7887;SDS011;3989;48.810;9.208;2022-08-23T08:33:33;3.22;;;2.25;;
7887;SDS011;3989;48.810;9.208;2022-08-23T08:36:00;2.63;;;2.13;;
7887;SDS011;3989;48.810;9.208;2022-08-23T08:38:28;3.75;;;3.45;;
7887;SDS011;3989;48.810;9.208;2022-08-23T08:40:58;4.72;;;2.50;;
7887;SDS011;3989;48.810;9.208;2022-08-23T08:43:32;2.50;;;2.40;;
7887;SDS011;3989;48.810;9.208;2022-08-23T08:46:07;3.20;;;2.90;;
7887;SDS011;3989;48.810;9.208;2022-08-23T08:48:47;8.00;;;2.72;;
7887;SDS011;3989;48.810;9.208;2022-08-23T08:51:26;2.53;;;2.20;;
7887;SDS011;3989;48.810;9.208;2022-08-23T08:54:05;3.72;;;2.33;;
7887;SDS011;3989;48.810;9.208;2022-08-23T08:56:36;3.17;;;2.97;;
7887;SDS011;3989;48.810;9.208;2022-08-23T08:59:05;2.35;;;2.15;;
7887;SDS011;3989;48.810;9.208;2022-08-23T09:01:35;3.25;;;1.92;;
7887;SDS011;3989;48.810;9.208;2022-08-23T09:04:05;2.85;;;2.20;;
7887;SDS011;3989;48.810;9.208;2022-08-23T09:06:35;2.67;;;2.47;;
7887;SDS011;3989;48.810;9.208;2022-08-23T09:09:14;2.65;;;2.45;;
7887;SDS011;3989;48.810;9.208;2022-08-23T09:11:56;2.88;;;2.20;;
7887;SDS011;3989;48.810;9.208;2022-08-23T09:14:35;2.65;;;2.05;;
7887;SDS011;3989;48.810;9.208;2022-08-23T09:17:11;2.65;;;1.80;;
7887;SDS011;3989;48.810;9.208;2022-08-23T09:19:46;1.65;;;1.55;;
7887;SDS011;3989;48.810;9.208;2022-08-23T09:22:17;2.85;;;1.45;;
7887;SDS011;3989;48.810;9.208;2022-08-23T09:24:51;1.50;;;1.40;;
7887;SDS011;3989;48.810;9.208;2022-08-23T09:27:17;2.60;;;1.55;;
7887;SDS011;3989;48.810;9.208;2022-08-23T09:29:51;3.60;;;1.52;;
7887;SDS011;3989;48.810;9.208;2022-08-23T09:32:30;1.67;;;1.40;;
7887;SDS011;3989;48.810;9.208;2022-08-23T09:35:09;1.33;;;1.30;;
7887;SDS011;3989;48.810;9.208;2022-08-23T09:37:54;2.00;;;1.40;;
7887;SDS011;3989;48.810;9.208;2022-08-23T09:40:30;2.03;;;1.70;;
7887;SDS011;3989;48.810;9.208;2022-08-23T09:43:02;1.85;;;1.67;;
7887;SDS011;3989;48.810;9.208;2022-08-23T09:45:34;1.80;;;1.65;;
7887;SDS011;3989;48.810;9.208;2022-08-23T09:48:02;1.60;;;1.50;;
7887;SDS011;3989;48.810;9.208;2022-08-23T09:50:31;1.67;;;1.58;;
7887;SDS011;3989;48.810;9.208;2022-08-23T09:53:04;1.80;;;1.70;;
7887;SDS011;3989;48.810;9.208;2022-08-23T09:55:35;1.98;;;1.88;;
7887;SDS011;3989;48.810;9.208;2022-08-23T09:58:05;3.83;;;1.80;;
7887;SDS011;3989;48.810;9.208;2022-08-23T10:00:41;1.92;;;1.83;;
7887;SDS011;3989;48.810;9.208;2022-08-23T10:03:19;1.88;;;1.58;;
7887;SDS011;3989;48.810;9.208;2022-08-23T10:05:50;1.75;;;1.65;;
7887;SDS011;3989;48.810;9.208;2022-08-23T10:08:23;1.60;;;1.50;;
7887;SDS011;3989;48.810;9.208;2022-08-23T10:10:52;1.35;;;1.25;;
7887;SDS011;3989;48.810;9.208;2022-08-23T10:13:22;1.50;;;1.40;;
7887;SDS011;3989;48.810;9.208;2022-08-23T10:15:53;1.48;;;1.40;;
7887;SDS011;3989;48.810;9.208;2022-08-23T10:18:30;2.65;;;1.60;;
7887;SDS011;3989;48.810;9.208;2022-08-23T10:21:13;1.88;;;1.77;;
7887;SDS011;3989;48.810;9.208;2022-08-23T10:23:47;1.45;;;1.40;;
7887;SDS011;3989;48.810;9.208;2022-08-23T10:26:21;1.60;;;1.30;;
7887;SDS011;3989;48.810;9.208;2022-08-23T10:28:53;1.58;;;1.50;;
7887;SDS011;3989;48.810;9.208;2022-08-23T10:31:45;1.33;;;1.25;;
7887;SDS011;3989;48.810;9.208;2022-08-23T10:34:25;1.42;;;1.40;;
7887;SDS011;3989;48.810;9.208;2022-08-23T10:37:09;1.80;;;1.30;;
7887;SDS011;3989;48.810;9.208;2022-08-23T10:39:51;1.55;;;1.23;;
7887;SDS011;3989;48.810;9.208;2022-08-23T10:42:27;1.20;;;1.20;;
7887;SDS011;3989;48.810;9.208;2022-08-23T10:45:02;7.00;;;1.50;;
7887;SDS011;3989;48.810;9.208;2022-08-23T10:47:37;1.50;;;1.40;;
7887;SDS011;3989;48.810;9.208;2022-08-23T10:50:10;1.65;;;1.60;;
7887;SDS011;3989;48.810;9.208;2022-08-23T10:52:45;2.53;;;1.50;;
7887;SDS011;3989;48.810;9.208;2022-08-23T10:55:20;1.80;;;1.40;;
7887;SDS011;3989;48.810;9.208;2022-08-23T10:58:04;2.22;;;1.67;;
7887;SDS011;3989;48.810;9.208;2022-08-23T11:00:33;1.52;;;1.42;;
7887;SDS011;3989;48.810;9.208;2022-08-23T11:03:04;2.88;;;1.67;;
7887;SDS011;3989;48.810;9.208;2022-08-23T11:05:43;1.92;;;1.83;;
7887;SDS011;3989;48.810;9.208;2022-08-23T11:08:55;1.52;;;1.50;;
7887;SDS011;3989;48.810;9.208;2022-08-23T11:11:31;1.98;;;1.65;;
7887;SDS011;3989;48.810;9.208;2022-08-23T11:14:05;1.45;;;1.45;;
7887;SDS011;3989;48.810;9.208;2022-08-23T11:16:34;1.60;;;1.50;;
7887;SDS011;3989;48.810;9.208;2022-08-23T11:19:08;3.20;;;1.65;;
7887;SDS011;3989;48.810;9.208;2022-08-23T11:21:46;2.30;;;2.10;;
7887;SDS011;3989;48.810;9.208;2022-08-23T11:27:24;2.20;;;1.77;;
7887;SDS011;3989;48.810;9.208;2022-08-23T11:29:52;1.67;;;1.58;;
7887;SDS011;3989;48.810;9.208;2022-08-23T11:32:29;1.40;;;1.40;;
7887;SDS011;3989;48.810;9.208;2022-08-23T11:35:04;1.85;;;1.60;;
7887;SDS011;3989;48.810;9.208;2022-08-23T11:43:33;2.13;;;1.80;;
7887;SDS011;3989;48.810;9.208;2022-08-23T11:49:10;2.95;;;1.50;;
7887;SDS011;3989;48.810;9.208;2022-08-23T11:51:58;2.08;;;1.80;;
7887;SDS011;3989;48.810;9.208;2022-08-23T11:54:35;1.50;;;1.50;;
7887;SDS011;3989;48.810;9.208;2022-08-23T11:57:25;1.52;;;1.25;;
7887;SDS011;3989;48.810;9.208;2022-08-23T12:00:15;1.48;;;1.40;;
7887;SDS011;3989;48.810;9.208;2022-08-23T12:02:47;2.28;;;2.15;;
7887;SDS011;3989;48.810;9.208;2022-08-23T12:05:22;1.10;;;1.10;;
7887;SDS011;3989;48.810;9.208;2022-08-23T12:11:13;1.55;;;1.50;;
7887;SDS011;3989;48.810;9.208;2022-08-23T12:13:52;2.35;;;1.77;;
7887;SDS011;3989;48.810;9.208;2022-08-23T12:16:28;1.42;;;1.40;;
7887;SDS011;3989;48.810;9.208;2022-08-23T12:19:00;1.70;;;1.60;;
7887;SDS011;3989;48.810;9.208;2022-08-23T12:21:48;1.45;;;1.40;;
7887;SDS011;3989;48.810;9.208;2022-08-23T12:24:23;1.50;;;1.40;;
7887;SDS011;3989;48.810;9.208;2022-08-23T12:30:18;1.30;;;1.20;;
7887;SDS011;3989;48.810;9.208;2022-08-23T12:36:12;1.63;;;1.52;;
7887;SDS011;3989;48.810;9.208;2022-08-23T12:39:05;2.08;;;1.90;;
7887;SDS011;3989;48.810;9.208;2022-08-23T12:41:50;1.98;;;1.88;;
7887;SDS011;3989;48.810;9.208;2022-08-23T12:44:35;1.67;;;1.58;;
7887;SDS011;3989;48.810;9.208;2022-08-23T12:47:23;1.75;;;1.55;;
7887;SDS011;3989;48.810;9.208;2022-08-23T12:49:56;1.92;;;1.83;;
7887;SDS011;3989;48.810;9.208;2022-08-23T12:52:25;1.60;;;1.50;;
7887;SDS011;3989;48.810;9.208;2022-08-23T12:54:53;2.15;;;1.50;;
7887;SDS011;3989;48.810;9.208;2022-08-23T12:57:26;1.30;;;1.20;;
7887;SDS011;3989;48.810;9.208;2022-08-23T13:00:03;1.70;;;1.70;;
7887;SDS011;3989;48.810;9.208;2022-08-23T13:02:35;1.55;;;1.45;;
7887;SDS011;3989;48.810;9.208;2022-08-23T13:05:07;1.45;;;1.35;;
7887;SDS011;3989;48.810;9.208;2022-08-23T13:07:38;1.58;;;1.48;;
7887;SDS011;3989;48.810;9.208;2022-08-23T13:10:07;1.88;;;1.70;;
7887;SDS011;3989;48.810;9.208;2022-08-23T13:12:35;1.60;;;1.50;;
7887;SDS011;3989;48.810;9.208;2022-08-23T13:15:02;2.03;;;1.40;;
7887;SDS011;3989;48.810;9.208;2022-08-23T13:17:32;1.55;;;1.45;;
7887;SDS011;3989;48.810;9.208;2022-08-23T13:20:18;1.45;;;1.35;;
7887;SDS011;3989;48.810;9.208;2022-08-23T13:22:57;1.50;;;1.40;;
7887;SDS011;3989;48.810;9.208;2022-08-23T13:25:27;1.60;;;1.50;;
7887;SDS011;3989;48.810;9.208;2022-08-23T13:27:56;1.58;;;1.38;;
7887;SDS011;3989;48.810;9.208;2022-08-23T13:30:26;3.22;;;1.40;;
7887;SDS011;3989;48.810;9.208;2022-08-23T13:35:45;1.50;;;1.40;;
7887;SDS011;3989;48.810;9.208;2022-08-23T13:38:15;1.52;;;1.42;;
7887;SDS011;3989;48.810;9.208;2022-08-23T13:40:53;1.95;;;1.50;;
7887;SDS011;3989;48.810;9.208;2022-08-23T13:43:25;2.40;;;1.48;;
7887;SDS011;3989;48.810;9.208;2022-08-23T13:45:56;5.88;;;1.73;;
7887;SDS011;3989;48.810;9.208;2022-08-23T13:48:24;2.42;;;1.60;;
7887;SDS011;3989;48.810;9.208;2022-08-23T13:53:51;1.80;;;1.70;;
7887;SDS011;3989;48.810;9.208;2022-08-23T13:56:18;1.95;;;1.85;;
7887;SDS011;3989;48.810;9.208;2022-08-23T13:58:51;1.80;;;1.70;;
7887;SDS011;3989;48.810;9.208;2022-08-23T14:01:20;1.45;;;1.30;;
7887;SDS011;3989;48.810;9.208;2022-08-23T14:03:47;1.77;;;1.67;;
7887;SDS011;3989;48.810;9.208;2022-08-23T14:06:13;1.30;;;1.20;;
7887;SDS011;3989;48.810;9.208;2022-08-23T14:08:42;1.98;;;1.80;;
7887;SDS011;3989;48.810;9.208;2022-08-23T14:11:09;1.83;;;1.73;;
7887;SDS011;3989;48.810;9.208;2022-08-23T14:13:38;1.50;;;1.40;;
7887;SDS011;3989;48.810;9.208;2022-08-23T14:16:06;1.80;;;1.63;;
7887;SDS011;3989;48.810;9.208;2022-08-23T14:18:34;1.58;;;1.48;;
7887;SDS011;3989;48.810;9.208;2022-08-23T14:21:00;1.63;;;1.52;;
7887;SDS011;3989;48.810;9.208;2022-08-23T14:23:27;3.20;;;1.67;;
7887;SDS011;3989;48.810;9.208;2022-08-23T14:25:55;1.40;;;1.30;;
7887;SDS011;3989;48.810;9.208;2022-08-23T14:28:24;1.65;;;1.55;;
7887;SDS011;3989;48.810;9.208;2022-08-23T14:30:53;2.30;;;1.73;;
7887;SDS011;3989;48.810;9.208;2022-08-23T14:33:20;1.48;;;1.38;;
7887;SDS011;3989;48.810;9.208;2022-08-23T14:35:47;6.30;;;1.80;;
7887;SDS011;3989;48.810;9.208;2022-08-23T14:38:14;3.75;;;1.42;;
7887;SDS011;3989;48.810;9.208;2022-08-23T14:40:42;1.83;;;1.73;;
7887;SDS011;3989;48.810;9.208;2022-08-23T14:43:16;4.25;;;1.83;;
7887;SDS011;3989;48.810;9.208;2022-08-23T14:45:44;1.90;;;1.80;;
7887;SDS011;3989;48.810;9.208;2022-08-23T14:48:11;1.63;;;1.52;;
7887;SDS011;3989;48.810;9.208;2022-08-23T14:50:37;1.77;;;1.63;;
7887;SDS011;3989;48.810;9.208;2022-08-23T14:53:05;3.63;;;1.50;;
7887;SDS011;3989;48.810;9.208;2022-08-23T14:55:32;1.92;;;1.80;;
7887;SDS011;3989;48.810;9.208;2022-08-23T14:58:00;1.45;;;1.38;;
7887;SDS011;3989;48.810;9.208;2022-08-23T15:00:29;2.10;;;2.00;;
7887;SDS011;3989;48.810;9.208;2022-08-23T15:02:56;1.90;;;1.80;;
7887;SDS011;3989;48.810;9.208;2022-08-23T15:05:22;1.77;;;1.70;;
7887;SDS011;3989;48.810;9.208;2022-08-23T15:07:49;2.50;;;1.40;;
7887;SDS011;3989;48.810;9.208;2022-08-23T15:10:16;1.85;;;1.83;;
7887;SDS011;3989;48.810;9.208;2022-08-23T15:12:43;1.50;;;1.40;;
7887;SDS011;3989;48.810;9.208;2022-08-23T15:15:11;1.80;;;1.70;;
7887;SDS011;3989;48.810;9.208;2022-08-23T15:17:46;1.98;;;1.88;;
7887;SDS011;3989;48.810;9.208;2022-08-23T15:20:16;1.40;;;1.40;;
7887;SDS011;3989;48.810;9.208;2022-08-23T15:22:43;1.83;;;1.73;;
7887;SDS011;3989;48.810;9.208;2022-08-23T15:25:10;2.15;;;1.85;;
7887;SDS011;3989;48.810;9.208;2022-08-23T15:27:37;2.40;;;1.48;;
7887;SDS011;3989;48.810;9.208;2022-08-23T15:30:04;1.33;;;1.23;;
7887;SDS011;3989;48.810;9.208;2022-08-23T15:32:31;1.60;;;1.50;;
7887;SDS011;3989;48.810;9.208;2022-08-23T15:35:00;2.00;;;1.90;;
7887;SDS011;3989;48.810;9.208;2022-08-23T15:37:26;1.65;;;1.60;;
7887;SDS011;3989;48.810;9.208;2022-08-23T15:39:53;1.77;;;1.67;;
7887;SDS011;3989;48.810;9.208;2022-08-23T15:42:20;1.63;;;1.52;;
7887;SDS011;3989;48.810;9.208;2022-08-23T15:44:46;1.70;;;1.60;;
7887;SDS011;3989;48.810;9.208;2022-08-23T15:47:17;3.47;;;1.77;;
7887;SDS011;3989;48.810;9.208;2022-08-23T15:49:47;1.55;;;1.52;;
7887;SDS011;3989;48.810;9.208;2022-08-23T15:52:16;1.55;;;1.45;;
7887;SDS011;3989;48.810;9.208;2022-08-23T15:54:44;1.40;;;1.30;;
7887;SDS011;3989;48.810;9.208;2022-08-23T15:57:12;1.33;;;1.33;;
7887;SDS011;3989;48.810;9.208;2022-08-23T15:59:40;1.63;;;1.52;;
7887;SDS011;3989;48.810;9.208;2022-08-23T16:02:07;2.17;;;1.80;;
7887;SDS011;3989;48.810;9.208;2022-08-23T16:04:34;1.83;;;1.73;;